Terminal Aerodrome Forecast
Issued by NWS Shreveport, LA

Home | Current Version | Previous Version | Text Only | Print | Product List | Glossary On
Versions: 1 2 3 4 5 6 7 8 9 10 11 12 13 14 15 16 17 18
000
FTUS44 KSHV 270523
TAFSHV
TAF
KSHV 270523Z 2706/2806 17006KT P6SM BKN120 BKN250
     FM271000 16008KT P6SM BKN015
     FM271700 16012G18KT P6SM VCTS BKN025CB
      TEMPO 2720/2724 16016G28KT 2SM TSRA BR OVC010CB
     FM280200 16012KT P6SM BKN020=

USA.gov is the U.S. government's official web portal to all federal, state and local government web resources and services.